Terminal Aerodrome Forecast
Issued by NWS

Home | Current Version | Previous Version | Graphics & Text | Print | Product List | Glossary On
Versions: 1 2 3 4 5 6 7 8 9 10 11 12 13
000
FTUS43 KTOP 182300
TAFMHK
TAF
KMHK 182329Z 1900/1924 20010KT P6SM FEW150
     FM190200 23008KT P6SM BKN100 WS012/25045KT
     FM190600 28008KT P6SM BKN100
     FM191500 32012KT P6SM SCT030
     FM192200 29006KT P6SM FEW030=

USA.gov is the U.S. government's official web portal to all federal, state and local government web resources and services.